Time;durP1;ratioP1;P1;durP2;ratioP2;P2;SDS_P1;SDS_P2;PMS_P1;PMS_P2;Temp;Humidity;BMP_temperature;BMP_pressure;BME280_temperature;BME280_humidity;BME280_pressure;Samples;Min_cycle;Max_cycle;Signal;HPM_P1;HPM_P2
2022/09/07 00:01:27;;;;;;;5.88;3.15;;;19.20;99.90;;;;;;4986559;28;20085;-86
2022/09/07 00:03:54;;;;;;;3.30;2.20;;;19.30;99.90;;;;;;4975223;28;20026;-85
2022/09/07 00:06:20;;;;;;;3.30;2.20;;;19.40;99.90;;;;;;4982858;28;20059;-84
2022/09/07 00:08:46;;;;;;;5.80;3.95;;;19.50;99.90;;;;;;4983991;28;20074;-84
2022/09/07 00:11:17;;;;;;;7.13;6.43;;;19.30;99.90;;;;;;4984647;28;20038;-81
2022/09/07 00:13:45;;;;;;;4.13;2.80;;;19.10;99.90;;;;;;4982482;28;20605;-83
2022/09/07 00:16:17;;;;;;;4.32;3.67;;;19.20;99.90;;;;;;4978934;28;20085;-84
2022/09/07 00:18:44;;;;;;;2.33;1.40;;;19.10;99.90;;;;;;4984892;28;20026;-85
2022/09/07 00:21:10;;;;;;;5.25;4.72;;;19.10;99.90;;;;;;5000892;28;20457;-83
2022/09/07 00:23:37;;;;;;;6.18;3.95;;;19.00;99.90;;;;;;4963884;28;20041;-82
2022/09/07 00:26:11;;;;;;;4.32;2.05;;;18.90;99.90;;;;;;4983287;28;20033;-82
2022/09/07 00:28:38;;;;;;;9.27;6.68;;;18.90;99.90;;;;;;4964979;28;20423;-85
2022/09/07 00:31:07;;;;;;;7.35;6.63;;;18.80;99.90;;;;;;4980407;28;20039;-82
2022/09/07 00:33:33;;;;;;;;;;;18.70;99.90;;;;;;4968465;28;20384;-82
2022/09/07 00:35:59;;;;;;;8.00;6.80;;;18.70;99.90;;;;;;4989034;28;19918;-81
2022/09/07 00:38:24;;;;;;;7.70;6.60;;;18.50;99.90;;;;;;4986397;28;20730;-83
2022/09/07 00:40:50;;;;;;;6.00;5.40;;;18.50;99.90;;;;;;4985980;28;20128;-82
2022/09/07 00:43:37;;;;;;;6.07;4.32;;;18.60;99.90;;;;;;4996793;28;20061;-80
2022/09/07 00:46:04;;;;;;;7.40;4.82;;;18.70;99.90;;;;;;4964950;28;20057;-82
2022/09/07 00:48:48;;;;;;;4.75;3.80;;;18.60;99.90;;;;;;4986824;28;20026;-82
2022/09/07 00:51:18;;;;;;;6.10;4.18;;;18.50;99.90;;;;;;4983976;28;20109;-82
2022/09/07 00:53:52;;;;;;;4.28;2.80;;;18.50;99.90;;;;;;4979567;28;20134;-82
2022/09/07 00:56:20;;;;;;;3.63;2.85;;;18.70;99.90;;;;;;4985134;28;20085;-83
2022/09/07 00:58:46;;;;;;;3.13;2.47;;;18.70;99.90;;;;;;4977556;28;20023;-80
2022/09/07 01:01:12;;;;;;;6.43;2.67;;;18.70;99.90;;;;;;4983922;28;20053;-81
2022/09/07 01:03:45;;;;;;;4.55;2.17;;;18.80;99.90;;;;;;4985711;28;20030;-80
2022/09/07 01:06:35;;;;;;;2.95;2.00;;;18.80;99.90;;;;;;4984683;28;20505;-82
2022/09/07 01:09:09;;;;;;;3.15;2.42;;;18.80;99.90;;;;;;4985188;28;20129;-81
2022/09/07 01:11:35;;;;;;;3.65;2.28;;;18.70;99.90;;;;;;4987399;28;20022;-87
2022/09/07 01:14:03;;;;;;;3.33;2.17;;;18.70;99.90;;;;;;4983912;28;20512;-82
2022/09/07 01:16:39;;;;;;;2.95;2.00;;;18.80;99.90;;;;;;4986968;28;20042;-82
2022/09/07 01:19:29;;;;;;;3.20;1.92;;;18.80;99.90;;;;;;4983838;28;20077;-81
2022/09/07 01:22:21;;;;;;;3.65;3.00;;;18.80;99.90;;;;;;4983035;28;20037;-83
2022/09/07 01:24:59;;;;;;;4.35;2.80;;;18.70;99.90;;;;;;4983789;28;20557;-82
2022/09/07 01:27:47;;;;;;;5.20;2.72;;;18.80;99.90;;;;;;4987332;28;20076;-83
2022/09/07 01:30:22;;;;;;;5.15;3.03;;;18.80;99.90;;;;;;4982542;28;20054;-79
2022/09/07 01:33:33;;;;;;;3.63;2.97;;;18.80;99.90;;;;;;4984708;28;20166;-81
2022/09/07 01:36:17;;;;;;;2.80;2.33;;;18.80;99.90;;;;;;4983083;28;20073;-82
2022/09/07 01:38:48;;;;;;;3.08;2.42;;;18.80;99.90;;;;;;4985521;28;20026;-84
2022/09/07 01:41:47;;;;;;;2.80;2.22;;;18.90;99.90;;;;;;4966057;28;20090;-83
2022/09/07 01:44:23;;;;;;;3.67;2.10;;;18.90;99.90;;;;;;4972751;28;20023;-86
2022/09/07 01:47:05;;;;;;;3.50;2.63;;;18.90;99.90;;;;;;5001822;28;20277;-81
2022/09/07 01:49:40;;;;;;;2.53;2.03;;;19.00;99.90;;;;;;4987280;28;20057;-86
2022/09/07 01:52:22;;;;;;;6.00;2.85;;;19.00;99.90;;;;;;4983403;28;20395;-82
2022/09/07 01:54:59;;;;;;;4.50;2.05;;;18.90;99.90;;;;;;4985372;28;20042;-83
2022/09/07 01:57:31;;;;;;;2.63;1.75;;;18.90;99.90;;;;;;4985753;28;20113;-86
2022/09/07 02:00:09;;;;;;;2.92;1.42;;;18.90;99.90;;;;;;4986736;28;20034;-86
2022/09/07 02:02:51;;;;;;;2.70;1.73;;;18.80;99.90;;;;;;4985395;28;20037;-84
2022/09/07 02:05:27;;;;;;;3.40;1.98;;;18.80;99.90;;;;;;4986865;28;20188;-81
2022/09/07 02:08:06;;;;;;;2.70;1.67;;;18.80;99.90;;;;;;4986396;28;20109;-87
2022/09/07 02:11:03;;;;;;;2.10;1.13;;;18.70;99.90;;;;;;4986414;28;20045;-81
2022/09/07 02:13:34;;;;;;;3.33;1.20;;;18.70;99.90;;;;;;4976946;28;20038;-84
2022/09/07 02:16:05;;;;;;;1.92;1.23;;;18.70;99.90;;;;;;4984961;28;20035;-82
2022/09/07 02:18:46;;;;;;;3.13;1.55;;;18.70;99.90;;;;;;4985669;28;20031;-86
2022/09/07 02:21:15;;;;;;;2.20;1.52;;;18.60;99.90;;;;;;4983157;28;20035;-81
2022/09/07 02:23:47;;;;;;;2.10;1.25;;;18.70;99.90;;;;;;4981991;28;20030;-86
2022/09/07 02:26:18;;;;;;;3.40;1.25;;;18.70;99.90;;;;;;4982899;28;20031;-87
2022/09/07 02:28:44;;;;;;;2.90;1.70;;;18.60;99.90;;;;;;4986846;28;20045;-83
2022/09/07 02:31:10;;;;;;;3.83;1.77;;;18.60;99.90;;;;;;4969246;28;20041;-82
2022/09/07 02:33:36;;;;;;;2.88;1.50;;;18.60;99.90;;;;;;4984078;28;20030;-84
2022/09/07 02:36:03;;;;;;;2.53;1.27;;;18.70;99.90;;;;;;4967053;28;20034;-81
2022/09/07 02:38:29;;;;;;;2.65;1.48;;;18.70;99.90;;;;;;4982960;28;20027;-86
2022/09/07 02:40:58;;;;;;;3.92;1.63;;;18.60;99.90;;;;;;4985063;28;20081;-83
2022/09/07 02:43:25;;;;;;;3.15;1.60;;;18.60;99.90;;;;;;4976951;28;20032;-86
2022/09/07 02:46:12;;;;;;;4.53;1.33;;;18.60;99.90;;;;;;4985594;28;20030;-84
2022/09/07 02:49:00;;;;;;;3.72;1.77;;;18.60;99.90;;;;;;4984064;28;20184;-87
2022/09/07 02:51:56;;;;;;;2.30;1.58;;;18.60;99.90;;;;;;4985956;28;20467;-85
2022/09/07 02:54:34;;;;;;;3.47;1.65;;;18.70;99.90;;;;;;4983171;28;20267;-84
2022/09/07 02:57:29;;;;;;;2.83;1.73;;;18.70;99.90;;;;;;4981860;28;20425;-87
2022/09/07 03:00:01;;;;;;;3.25;2.25;;;18.60;99.90;;;;;;4985045;28;20027;-84
2022/09/07 03:03:02;;;;;;;2.88;2.38;;;18.60;99.90;;;;;;4976287;28;20511;-85
2022/09/07 03:05:39;;;;;;;3.25;2.58;;;18.60;99.90;;;;;;4952882;28;20130;-82
2022/09/07 03:08:09;;;;;;;3.47;2.30;;;18.60;99.90;;;;;;4966457;28;20023;-85
2022/09/07 03:10:38;;;;;;;3.78;2.80;;;18.60;99.90;;;;;;4982798;28;20054;-89
2022/09/07 03:13:04;;;;;;;3.53;2.43;;;18.60;99.90;;;;;;4974090;28;20398;-88
2022/09/07 03:15:30;;;;;;;2.90;2.38;;;18.60;99.90;;;;;;4969240;28;20042;-84
2022/09/07 03:17:55;;;;;;;3.95;2.67;;;18.60;99.90;;;;;;4983459;28;20042;-87
2022/09/07 03:20:22;;;;;;;3.80;2.78;;;18.60;99.90;;;;;;4985188;28;20084;-86
2022/09/07 03:22:49;;;;;;;4.93;2.80;;;18.60;99.90;;;;;;4990004;28;20026;-82
2022/09/07 03:25:16;;;;;;;2.95;2.42;;;18.70;99.90;;;;;;4979280;28;20561;-86
2022/09/07 03:27:42;;;;;;;4.00;1.75;;;18.70;99.90;;;;;;4982062;28;20058;-85
2022/09/07 03:30:10;;;;;;;2.22;1.70;;;18.70;99.90;;;;;;4971568;28;20461;-85
2022/09/07 03:32:37;;;;;;;3.40;1.83;;;18.60;99.90;;;;;;4983041;28;20035;-85
2022/09/07 03:35:05;;;;;;;2.40;1.58;;;18.70;99.90;;;;;;4981886;28;20035;-89
2022/09/07 03:37:31;;;;;;;3.10;1.77;;;18.70;99.90;;;;;;4984032;28;20038;-87
2022/09/07 03:39:57;;;;;;;3.55;1.70;;;18.70;99.90;;;;;;4985050;28;20026;-85
2022/09/07 03:42:23;;;;;;;2.47;1.85;;;18.70;99.90;;;;;;4984310;28;20065;-83
2022/09/07 03:44:49;;;;;;;3.35;2.13;;;18.70;99.90;;;;;;4984032;28;20113;-83
2022/09/07 03:47:15;;;;;;;2.80;2.20;;;18.60;99.90;;;;;;4979179;28;20056;-85
2022/09/07 03:49:41;;;;;;;4.07;2.72;;;18.60;99.90;;;;;;4967328;28;20039;-86
2022/09/07 03:52:07;;;;;;;3.33;2.58;;;18.60;99.90;;;;;;4981160;28;20419;-82
2022/09/07 03:54:32;;;;;;;5.28;2.83;;;18.70;99.90;;;;;;4983672;28;20086;-80
2022/09/07 03:56:58;;;;;;;3.45;2.95;;;18.60;99.90;;;;;;4995404;28;20430;-85
2022/09/07 03:59:24;;;;;;;4.82;3.67;;;18.60;99.90;;;;;;4982666;28;20146;-84
2022/09/07 04:01:49;;;;;;;5.68;5.10;;;18.60;99.90;;;;;;4982442;28;20061;-85
2022/09/07 04:04:15;;;;;;;5.97;5.45;;;18.60;99.90;;;;;;4981838;28;20034;-87
2022/09/07 04:06:40;;;;;;;5.25;4.75;;;18.60;99.90;;;;;;4978320;28;20049;-86
2022/09/07 04:09:11;;;;;;;3.78;3.40;;;18.60;99.90;;;;;;4988375;28;20026;-84
2022/09/07 04:11:36;;;;;;;7.47;5.40;;;18.60;99.90;;;;;;4980057;28;20039;-84
2022/09/07 04:14:02;;;;;;;7.00;6.30;;;18.50;99.90;;;;;;4984040;28;20033;-82
2022/09/07 04:16:29;;;;;;;7.18;5.95;;;18.50;99.90;;;;;;4974063;28;20037;-87
2022/09/07 04:18:55;;;;;;;6.93;6.13;;;18.50;99.90;;;;;;4989057;28;20114;-86
2022/09/07 04:21:22;;;;;;;6.10;5.50;;;18.50;99.90;;;;;;4987778;28;20026;-87
2022/09/07 04:23:48;;;;;;;7.97;6.75;;;18.50;99.90;;;;;;4984626;28;20074;-84
2022/09/07 04:26:25;;;;;;;7.75;6.22;;;18.40;99.90;;;;;;4987377;28;20474;-83
2022/09/07 04:28:53;;;;;;;6.78;6.07;;;18.40;99.90;;;;;;4988762;28;20032;-88
2022/09/07 04:31:19;;;;;;;6.97;5.95;;;18.40;99.90;;;;;;4969455;28;20031;-84
2022/09/07 04:33:47;;;;;;;7.55;5.93;;;18.30;99.90;;;;;;4987381;28;20475;-85
2022/09/07 04:36:14;;;;;;;7.40;6.50;;;18.30;99.90;;;;;;4973438;28;20045;-87
2022/09/07 04:38:40;;;;;;;6.07;5.47;;;18.20;99.90;;;;;;4988631;28;20027;-88
2022/09/07 04:41:09;;;;;;;5.60;4.50;;;18.30;99.90;;;;;;4986599;28;20068;-85
2022/09/07 04:43:36;;;;;;;6.03;5.50;;;18.30;99.90;;;;;;4985931;28;20049;-82
2022/09/07 04:46:07;;;;;;;4.65;4.25;;;18.30;99.90;;;;;;4986658;28;20038;-85
2022/09/07 04:48:33;;;;;;;5.57;5.07;;;18.30;99.90;;;;;;4997241;28;20277;-85
2022/09/07 04:51:18;;;;;;;5.63;4.93;;;18.30;99.90;;;;;;4987500;28;20720;-86
2022/09/07 04:53:47;;;;;;;4.07;3.25;;;18.30;99.90;;;;;;4987708;28;20050;-86
2022/09/07 04:56:13;;;;;;;4.82;3.95;;;18.30;99.90;;;;;;4985401;28;20137;-84
2022/09/07 04:58:38;;;;;;;6.00;5.38;;;18.20;99.90;;;;;;4979540;28;20118;-82
2022/09/07 05:01:05;;;;;;;4.97;4.47;;;18.20;99.90;;;;;;4970219;28;20034;-89
2022/09/07 05:03:33;;;;;;;7.20;5.07;;;18.20;99.90;;;;;;4984777;28;20079;-87
2022/09/07 05:06:00;;;;;;;6.40;5.80;;;18.20;99.90;;;;;;5003132;28;20042;-77
2022/09/07 05:08:26;;;;;;;6.60;5.90;;;18.10;99.90;;;;;;4984598;28;20030;-77
2022/09/07 05:10:53;;;;;;;5.47;5.00;;;18.10;99.90;;;;;;4977219;28;20035;-76
2022/09/07 05:13:20;;;;;;;5.63;5.13;;;18.10;99.90;;;;;;4982421;28;20089;-78
2022/09/07 05:15:46;;;;;;;6.00;5.40;;;18.00;99.90;;;;;;4987578;28;20038;-78
2022/09/07 05:18:12;;;;;;;7.88;5.82;;;18.00;99.90;;;;;;4985750;28;20022;-77
2022/09/07 05:20:39;;;;;;;5.55;4.43;;;18.10;99.90;;;;;;4981078;28;20062;-78
2022/09/07 05:23:05;;;;;;;6.55;5.07;;;18.10;99.90;;;;;;4990874;28;20068;-76
2022/09/07 05:25:31;;;;;;;4.65;4.20;;;18.10;99.90;;;;;;4984769;28;20484;-77
2022/09/07 05:27:57;;;;;;;4.68;4.10;;;18.20;99.90;;;;;;4986473;28;20505;-77
2022/09/07 05:30:22;;;;;;;5.88;5.18;;;18.20;99.90;;;;;;4966696;28;20042;-77
2022/09/07 05:32:48;;;;;;;5.65;4.60;;;18.20;99.90;;;;;;4966074;28;20057;-76
2022/09/07 05:35:14;;;;;;;7.25;6.40;;;18.10;99.90;;;;;;4984604;28;20125;-76
2022/09/07 05:37:40;;;;;;;7.07;6.15;;;18.10;99.90;;;;;;4981893;28;20066;-76
2022/09/07 05:40:07;;;;;;;6.65;6.00;;;18.00;99.90;;;;;;4985653;28;20041;-76
2022/09/07 05:42:36;;;;;;;6.93;6.22;;;18.00;99.90;;;;;;4982588;28;20061;-77
2022/09/07 05:45:03;;;;;;;4.95;4.55;;;18.10;99.90;;;;;;4985079;28;20030;-76
2022/09/07 05:47:28;;;;;;;8.35;5.95;;;18.10;99.90;;;;;;4984026;28;20035;-76
2022/09/07 05:49:54;;;;;;;6.47;5.57;;;18.10;99.90;;;;;;4981622;28;20029;-76
2022/09/07 05:52:20;;;;;;;5.93;5.30;;;18.10;99.90;;;;;;4980485;28;20471;-77
2022/09/07 05:54:46;;;;;;;5.88;5.38;;;18.20;99.90;;;;;;4961204;28;20046;-76
2022/09/07 05:57:12;;;;;;;7.30;6.60;;;18.10;99.90;;;;;;4978559;28;20024;-77
2022/09/07 05:59:38;;;;;;;7.63;6.93;;;18.00;99.90;;;;;;4961119;28;20486;-76
2022/09/07 06:02:04;;;;;;;7.05;6.40;;;18.10;99.90;;;;;;4970708;28;20085;-76
2022/09/07 06:04:29;;;;;;;7.38;6.68;;;18.10;99.90;;;;;;4977123;28;20026;-77
2022/09/07 06:06:55;;;;;;;8.43;7.63;;;18.10;99.90;;;;;;4976613;28;20464;-76
2022/09/07 06:09:20;;;;;;;9.05;7.38;;;18.10;99.90;;;;;;4967410;28;20744;-76
2022/09/07 06:11:46;;;;;;;5.93;5.35;;;18.10;99.90;;;;;;4977760;28;20076;-76
2022/09/07 06:14:12;;;;;;;6.55;5.80;;;18.10;99.90;;;;;;4978959;28;20042;-77
2022/09/07 06:16:37;;;;;;;5.70;5.20;;;18.20;99.90;;;;;;4977970;28;20045;-77
2022/09/07 06:19:05;;;;;;;6.32;5.72;;;18.30;99.90;;;;;;4973222;28;20105;-77
2022/09/07 06:21:35;;;;;;;7.88;7.18;;;18.40;99.90;;;;;;4975857;28;20034;-77
2022/09/07 06:24:01;;;;;;;;;;;18.30;99.90;;;;;;4975592;28;20049;-76
2022/09/07 06:26:26;;;;;;;8.18;6.65;;;18.30;99.90;;;;;;4977657;28;20366;-76
2022/09/07 06:28:52;;;;;;;6.97;6.28;;;18.30;99.90;;;;;;4976098;28;20049;-76
2022/09/07 06:31:20;;;;;;;9.25;8.27;;;18.50;99.90;;;;;;4978214;28;20058;-76
2022/09/07 06:33:47;;;;;;;7.35;6.22;;;18.50;99.90;;;;;;5008275;28;20034;-75
2022/09/07 06:36:18;;;;;;;10.15;8.70;;;18.50;99.90;;;;;;4976051;28;20045;-77
2022/09/07 06:38:45;;;;;;;12.75;11.20;;;18.50;99.90;;;;;;4971463;28;20077;-76
2022/09/07 06:41:22;;;;;;;8.60;7.68;;;18.50;99.90;;;;;;4976895;28;20050;-77
2022/09/07 06:43:48;;;;;;;8.98;8.02;;;18.70;99.90;;;;;;4993052;28;20367;-76
2022/09/07 06:46:15;;;;;;;8.65;7.80;;;18.80;99.90;;;;;;4975512;28;20088;-77
2022/09/07 06:48:40;;;;;;;6.10;5.43;;;18.90;99.90;;;;;;4960236;28;20192;-77
2022/09/07 06:51:12;;;;;;;13.55;12.23;;;19.00;99.90;;;;;;4977095;28;20118;-76
2022/09/07 06:53:38;;;;;;;13.65;12.23;;;18.60;99.90;;;;;;4973622;28;20487;-77
2022/09/07 06:56:09;;;;;;;10.55;7.75;;;18.50;99.90;;;;;;4974699;28;20042;-77
2022/09/07 06:58:35;;;;;;;14.50;13.02;;;18.50;99.90;;;;;;4988157;28;20483;-77
2022/09/07 07:01:15;;;;;;;15.25;13.48;;;18.50;99.90;;;;;;4971742;28;20042;-77
2022/09/07 07:03:42;;;;;;;13.85;12.45;;;18.50;99.90;;;;;;4958721;28;20675;-77
2022/09/07 07:06:08;;;;;;;11.82;10.70;;;18.70;99.90;;;;;;4976750;28;20038;-78
2022/09/07 07:08:34;;;;;;;8.75;7.72;;;18.80;99.90;;;;;;4977417;28;20038;-77
2022/09/07 07:11:11;;;;;;;14.50;13.00;;;19.00;99.90;;;;;;4978157;28;20073;-77
2022/09/07 07:13:38;;;;;;;13.73;12.13;;;18.80;99.90;;;;;;4976993;28;20054;-76
2022/09/07 07:16:09;;;;;;;11.00;9.88;;;18.90;99.90;;;;;;4973310;28;20047;-76
2022/09/07 07:18:35;;;;;;;13.80;11.15;;;18.90;99.90;;;;;;4977432;28;20379;-76
2022/09/07 07:21:06;;;;;;;13.18;11.63;;;18.90;99.90;;;;;;4969169;28;20034;-77
2022/09/07 07:23:33;;;;;;;19.92;17.40;;;18.70;99.90;;;;;;4977758;28;20037;-78
2022/09/07 07:26:09;;;;;;;19.77;17.65;;;18.50;99.90;;;;;;4977405;28;20082;-77
2022/09/07 07:28:34;;;;;;;18.42;16.42;;;18.40;99.90;;;;;;4972725;28;20549;-77
2022/09/07 07:31:01;;;;;;;20.98;17.70;;;18.50;99.90;;;;;;4973556;28;20138;-77
2022/09/07 07:33:33;;;;;;;19.58;16.17;;;18.40;99.90;;;;;;4973489;28;20241;-77
2022/09/07 07:36:12;;;;;;;17.38;15.48;;;18.60;99.90;;;;;;4976886;28;20129;-77
2022/09/07 07:38:42;;;;;;;20.55;18.33;;;18.50;99.90;;;;;;4975340;28;20129;-76
2022/09/07 07:41:08;;;;;;;18.30;14.73;;;18.50;99.90;;;;;;4974677;28;20045;-77
2022/09/07 07:43:34;;;;;;;24.05;19.10;;;18.60;99.90;;;;;;4956499;28;20379;-78
2022/09/07 07:46:00;;;;;;;27.02;20.80;;;18.40;99.90;;;;;;4961853;28;20267;-76
2022/09/07 07:48:26;;;;;;;19.67;16.67;;;18.30;99.90;;;;;;4973529;28;20095;-77
2022/09/07 07:51:03;;;;;;;18.13;15.93;;;18.50;99.90;;;;;;4979370;28;20027;-76
2022/09/07 07:53:30;;;;;;;16.63;13.48;;;18.70;99.90;;;;;;4962032;28;20042;-76
2022/09/07 07:55:58;;;;;;;16.98;14.30;;;18.70;99.90;;;;;;4980969;28;20077;-75
2022/09/07 07:58:26;;;;;;;20.80;17.83;;;18.70;99.90;;;;;;4980711;28;20035;-77
2022/09/07 08:00:52;;;;;;;17.13;14.75;;;18.60;99.90;;;;;;4981557;28;20422;-78
2022/09/07 08:03:19;;;;;;;19.05;16.40;;;18.80;99.90;;;;;;4979963;28;20030;-76
2022/09/07 08:05:44;;;;;;;16.75;14.15;;;19.10;99.90;;;;;;4977736;28;20042;-77
2022/09/07 08:08:10;;;;;;;18.55;16.67;;;19.10;99.90;;;;;;4987219;28;20038;-77
2022/09/07 08:10:36;;;;;;;15.60;14.00;;;19.10;99.90;;;;;;4977861;28;20076;-78
2022/09/07 08:13:02;;;;;;;17.50;14.40;;;19.00;99.90;;;;;;4978480;28;20058;-77
2022/09/07 08:15:29;;;;;;;17.83;15.80;;;19.10;99.90;;;;;;4980104;28;20072;-76
2022/09/07 08:17:56;;;;;;;18.83;16.38;;;19.10;99.90;;;;;;4994075;28;20034;-78
2022/09/07 08:20:22;;;;;;;18.02;15.88;;;18.90;99.90;;;;;;4979280;28;20403;-78
2022/09/07 08:22:51;;;;;;;11.63;10.45;;;18.90;99.90;;;;;;5010880;28;20026;-76
2022/09/07 08:25:17;;;;;;;10.97;9.90;;;19.10;99.90;;;;;;4958111;28;20062;-77
2022/09/07 08:27:42;;;;;;;13.65;12.18;;;19.50;99.90;;;;;;4977700;28;20065;-77
2022/09/07 08:30:09;;;;;;;14.15;11.73;;;19.40;99.90;;;;;;4977522;28;20113;-76
2022/09/07 08:32:35;;;;;;;16.70;13.50;;;19.50;99.90;;;;;;4979432;28;20034;-76
2022/09/07 08:35:02;;;;;;;14.77;13.20;;;20.10;99.90;;;;;;4993373;28;20454;-77
2022/09/07 08:37:28;;;;;;;14.90;12.27;;;20.10;99.90;;;;;;4979766;28;20030;-78
2022/09/07 08:39:53;;;;;;;19.88;17.88;;;20.10;99.90;;;;;;4977824;28;20054;-78
2022/09/07 08:42:25;;;;;;;19.30;16.33;;;19.70;99.90;;;;;;4976915;28;20117;-77
2022/09/07 08:45:10;;;;;;;19.92;15.70;;;19.60;99.90;;;;;;4977582;28;20027;-77
2022/09/07 08:47:44;;;;;;;15.90;13.82;;;19.80;99.90;;;;;;4980085;28;20035;-78
2022/09/07 08:50:27;;;;;;;17.95;16.02;;;19.90;99.90;;;;;;4959770;28;20126;-77
2022/09/07 08:53:01;;;;;;;17.02;14.50;;;19.60;99.90;;;;;;4978636;28;20183;-77
2022/09/07 08:55:42;;;;;;;16.98;13.05;;;19.80;99.90;;;;;;4980874;28;20031;-76
2022/09/07 08:58:16;;;;;;;15.95;14.00;;;19.90;99.90;;;;;;4979052;28;20034;-76
2022/09/07 09:00:42;;;;;;;19.00;15.35;;;20.00;99.90;;;;;;4975703;28;20034;-76
2022/09/07 09:03:32;;;;;;;13.95;12.52;;;20.00;99.90;;;;;;4978723;28;20474;-77
2022/09/07 09:06:17;;;;;;;18.55;16.35;;;20.30;99.90;;;;;;4978669;28;20045;-78
2022/09/07 09:09:01;;;;;;;17.30;15.50;;;19.90;99.90;;;;;;4980542;28;20034;-76
2022/09/07 09:11:43;;;;;;;14.93;12.52;;;20.20;99.90;;;;;;4976550;28;20117;-76
2022/09/07 09:14:27;;;;;;;16.60;14.50;;;21.10;99.90;;;;;;4975689;28;20045;-77
2022/09/07 09:17:28;;;;;;;13.90;12.48;;;20.90;99.90;;;;;;4978187;28;20097;-78
2022/09/07 09:19:59;;;;;;;18.88;16.90;;;20.70;99.90;;;;;;4981574;28;20037;-77
2022/09/07 09:22:27;;;;;;;19.17;17.25;;;20.20;99.90;;;;;;4982521;28;20043;-77
2022/09/07 09:25:20;;;;;;;18.60;15.93;;;20.30;99.90;;;;;;4966428;28;20092;-76
2022/09/07 09:27:47;;;;;;;18.40;16.48;;;20.30;99.90;;;;;;4977427;28;20403;-77
2022/09/07 09:30:19;;;;;;;18.10;16.20;;;20.30;99.90;;;;;;4974154;28;20109;-76
2022/09/07 09:32:47;;;;;;;14.02;11.43;;;20.30;99.90;;;;;;4961205;28;20121;-77
2022/09/07 09:35:31;;;;;;;14.90;13.30;;;20.60;99.90;;;;;;4969967;28;20495;-77
2022/09/07 09:37:57;;;;;;;16.02;14.43;;;20.70;99.90;;;;;;4975350;28;20030;-76
2022/09/07 09:40:30;;;;;;;13.35;9.40;;;20.80;99.90;;;;;;4958022;28;20065;-76
2022/09/07 09:43:04;;;;;;;9.68;7.82;;;21.40;99.90;;;;;;4974547;28;20112;-77
2022/09/07 09:45:34;;;;;;;12.80;9.88;;;21.80;99.90;;;;;;4960025;28;20472;-77
2022/09/07 09:48:01;;;;;;;15.57;13.85;;;21.30;99.90;;;;;;4949084;28;20022;-82
2022/09/07 09:50:34;;;;;;;10.52;9.43;;;20.90;99.90;;;;;;4977205;28;20042;-78
2022/09/07 09:53:01;;;;;;;6.82;6.13;;;21.40;99.90;;;;;;4949798;28;20472;-76
2022/09/07 09:55:35;;;;;;;11.25;10.05;;;21.80;99.90;;;;;;4961594;28;20049;-77
2022/09/07 09:58:05;;;;;;;12.07;9.52;;;22.40;99.90;;;;;;4979853;28;20109;-77
2022/09/07 10:00:32;;;;;;;17.63;15.85;;;22.60;99.90;;;;;;4979831;28;20038;-76
2022/09/07 10:03:24;;;;;;;14.90;13.32;;;22.60;99.90;;;;;;4976405;28;20042;-77
2022/09/07 10:05:49;;;;;;;14.80;13.02;;;22.60;99.90;;;;;;4961437;28;20669;-77
2022/09/07 10:08:15;;;;;;;13.68;11.57;;;22.50;99.90;;;;;;4978209;28;20124;-77
2022/09/07 10:11:02;;;;;;;12.98;11.75;;;22.30;99.90;;;;;;4976221;28;20501;-77
2022/09/07 10:13:31;;;;;;;11.40;10.25;;;22.00;99.90;;;;;;4973175;28;20019;-77
2022/09/07 10:15:59;;;;;;;9.10;7.70;;;22.20;99.90;;;;;;4982326;28;20057;-78
2022/09/07 10:18:38;;;;;;;11.00;9.93;;;22.90;99.90;;;;;;4975616;28;20117;-77
2022/09/07 10:21:33;;;;;;;5.65;4.97;;;22.70;99.90;;;;;;4976169;28;20034;-77
2022/09/07 10:24:12;;;;;;;5.57;5.03;;;22.90;99.90;;;;;;4968177;28;20035;-76
2022/09/07 10:26:40;;;;;;;8.90;8.00;;;23.00;99.90;;;;;;4979465;28;20077;-77
2022/09/07 10:29:29;;;;;;;5.07;4.57;;;23.20;99.90;;;;;;4976000;28;21795;-77
2022/09/07 10:32:19;;;;;;;5.63;5.13;;;23.90;99.90;;;;;;4974981;28;20463;-77
2022/09/07 10:35:01;;;;;;;7.20;5.85;;;24.40;99.90;;;;;;4973533;28;20031;-77
2022/09/07 10:37:36;;;;;;;6.80;6.20;;;24.40;99.90;;;;;;4976118;28;20038;-77
2022/09/07 10:40:53;;;;;;;9.05;8.15;;;24.10;99.90;;;;;;4978655;28;20491;-77
2022/09/07 10:43:41;;;;;;;9.57;8.57;;;23.50;99.90;;;;;;4976384;28;20046;-78
2022/09/07 10:46:30;;;;;;;9.50;8.00;;;23.40;99.90;;;;;;4975529;28;20145;-77
2022/09/07 10:49:11;;;;;;;10.93;9.38;;;22.90;99.90;;;;;;4974084;28;20038;-77
2022/09/07 10:51:56;;;;;;;9.18;8.10;;;22.90;99.90;;;;;;5009269;28;20050;-77
2022/09/07 10:54:43;;;;;;;6.07;5.47;;;23.00;99.90;;;;;;4972629;28;20022;-77
2022/09/07 10:57:44;;;;;;;9.20;8.18;;;23.50;99.90;;;;;;4972389;28;20042;-77
2022/09/07 11:00:13;;;;;;;12.63;11.48;;;23.50;99.90;;;;;;4944921;28;20030;-76
2022/09/07 11:03:16;;;;;;;8.65;7.60;;;23.00;99.90;;;;;;4985976;28;20243;-77
2022/09/07 11:05:56;;;;;;;5.40;4.75;;;23.50;99.90;;;;;;4943427;28;20044;-77
2022/09/07 11:08:52;;;;;;;6.72;6.05;;;24.00;99.90;;;;;;4969651;28;20484;-76
2022/09/07 11:11:28;;;;;;;6.10;5.50;;;24.30;99.90;;;;;;4970189;28;20471;-78
2022/09/07 11:13:59;;;;;;;6.63;5.05;;;24.20;99.90;;;;;;4986480;28;20640;-77
2022/09/07 11:16:27;;;;;;;7.38;6.03;;;24.10;99.90;;;;;;4973814;28;20506;-78
2022/09/07 11:19:01;;;;;;;9.05;7.18;;;24.00;99.90;;;;;;4986957;28;20034;-78
2022/09/07 11:21:34;;;;;;;9.70;8.02;;;23.80;99.90;;;;;;4985423;28;20049;-77
2022/09/07 11:24:21;;;;;;;10.52;7.07;;;24.00;99.90;;;;;;4971799;28;20034;-78
2022/09/07 11:26:49;;;;;;;8.00;7.10;;;23.40;99.90;;;;;;4964000;28;20033;-77
2022/09/07 11:29:37;;;;;;;6.97;6.28;;;23.00;99.90;;;;;;4969108;28;20446;-77
2022/09/07 11:32:10;;;;;;;5.30;4.00;;;23.10;99.90;;;;;;4972207;28;20368;-77
2022/09/07 11:34:52;;;;;;;5.18;3.08;;;23.70;99.90;;;;;;4978268;28;20431;-77
2022/09/07 11:37:32;;;;;;;6.50;5.30;;;24.00;99.90;;;;;;4977176;28;20712;-78
2022/09/07 11:40:27;;;;;;;9.98;7.30;;;24.40;99.90;;;;;;4958698;28;20146;-78
2022/09/07 11:43:11;;;;;;;5.25;4.00;;;24.00;99.90;;;;;;4979395;28;20050;-77
2022/09/07 11:45:46;;;;;;;5.82;3.70;;;24.70;99.90;;;;;;4976532;28;20527;-78
2022/09/07 11:48:43;;;;;;;5.43;4.72;;;24.60;99.90;;;;;;4988322;28;20365;-77
2022/09/07 11:51:46;;;;;;;4.47;3.85;;;24.10;99.90;;;;;;4991704;28;20038;-78
2022/09/07 11:54:18;;;;;;;6.75;4.57;;;24.70;99.90;;;;;;4974273;28;20026;-77
2022/09/07 11:56:52;;;;;;;4.82;3.65;;;24.20;99.90;;;;;;4977063;28;20048;-77
2022/09/07 11:59:32;;;;;;;3.38;3.08;;;23.70;99.90;;;;;;4962625;28;20062;-77
2022/09/07 12:02:14;;;;;;;9.23;6.10;;;24.40;99.90;;;;;;4975494;28;20031;-77
2022/09/07 12:05:06;;;;;;;7.10;5.20;;;24.20;99.90;;;;;;4978058;28;20487;-77
2022/09/07 12:07:34;;;;;;;5.45;4.00;;;23.70;99.90;;;;;;4972723;28;20035;-77
2022/09/07 12:10:23;;;;;;;3.83;3.10;;;24.00;99.90;;;;;;4974403;28;20030;-77
2022/09/07 12:13:19;;;;;;;3.65;1.77;;;24.60;99.90;;;;;;4974705;28;20030;-77
2022/09/07 12:16:10;;;;;;;2.33;1.00;;;25.50;99.90;;;;;;4976733;28;20038;-77
2022/09/07 12:19:07;;;;;;;7.30;3.17;;;25.60;99.90;;;;;;4976201;28;20113;-78
2022/09/07 12:21:44;;;;;;;4.60;3.38;;;24.70;99.90;;;;;;4975434;28;20391;-77
2022/09/07 12:24:35;;;;;;;6.85;5.05;;;24.10;99.90;;;;;;4973949;28;20457;-78
2022/09/07 12:27:03;;;;;;;5.65;3.22;;;23.70;99.90;;;;;;4972692;28;20038;-77
2022/09/07 12:29:30;;;;;;;3.22;2.47;;;23.80;99.90;;;;;;4976369;28;20034;-77
2022/09/07 12:31:57;;;;;;;3.05;1.98;;;24.00;99.90;;;;;;4978159;28;20062;-78
2022/09/07 12:34:51;;;;;;;3.60;1.25;;;24.30;99.90;;;;;;4981411;28;20125;-77
2022/09/07 12:37:26;;;;;;;1.55;0.68;;;24.70;99.90;;;;;;4978324;28;20043;-78
2022/09/07 12:40:26;;;;;;;1.95;0.70;;;24.70;99.90;;;;;;4977568;28;20388;-77
2022/09/07 12:43:13;;;;;;;3.03;1.30;;;25.40;99.90;;;;;;4974766;28;20045;-77
2022/09/07 12:45:39;;;;;;;2.33;0.60;;;25.10;99.90;;;;;;4975187;28;20078;-78
2022/09/07 12:48:14;;;;;;;1.77;0.55;;;25.60;99.90;;;;;;4992278;28;20501;-78
2022/09/07 12:51:02;;;;;;;2.45;0.40;;;25.20;99.90;;;;;;4980836;28;20053;-79
2022/09/07 12:53:57;;;;;;;1.83;0.40;;;25.80;99.90;;;;;;4979847;28;20026;-77
2022/09/07 12:56:36;;;;;;;2.13;0.82;;;25.90;99.90;;;;;;4979324;28;20093;-77
2022/09/07 12:59:05;;;;;;;2.57;0.40;;;24.70;99.90;;;;;;4977614;28;20089;-77
2022/09/07 13:01:52;;;;;;;1.50;0.40;;;24.90;99.90;;;;;;4976898;28;20075;-76
2022/09/07 13:04:45;;;;;;;1.13;0.20;;;25.10;99.90;;;;;;4979970;28;20113;-77
2022/09/07 13:07:30;;;;;;;0.98;0.25;;;25.30;99.90;;;;;;4975751;28;20018;-77
2022/09/07 13:09:57;;;;;;;1.83;0.35;;;25.70;99.90;;;;;;4973748;28;20088;-77
2022/09/07 13:12:45;;;;;;;0.98;0.20;;;25.90;99.90;;;;;;4979330;28;20030;-78
2022/09/07 13:15:51;;;;;;;1.17;0.30;;;26.10;99.90;;;;;;4978942;28;20026;-77